Decoded Metar for YESP ( in ) (IATA:) | Meteo·Mobile Aviation Weather
aviador You're here:

YESP Decoded Metar

in
Report Time2018-12-16 10:00:00
UTC Time2018-12-16 11:06:34
Flight Rules vfr VFR
Wind130° at 21 kt
W.Decomp.*RWY 11: 19.7 kt HW 7.2 kt RCW
RWY 21: 3.6 kt HW 20.7 kt LCW
W.Rank130° ranks 12
Current wind is above 130° avg. (9.6)
Visibility9999 m
Phenomena:N/A
Clouds:Scattered 110 Hf
Expected CloudBase > 2,000 ft AGL from Temp-Dew spread
CeilingNone
Temp17°C
Dew Point12°C (73% RH)
AAT10.1°C
QNH1007 hPa
Raw Report
METAR YESP 161000Z AUTO 13021KT 9999 // SCT110 17/12 Q1007=

Extra information for YESP:More info

Social comments